Time;durP1;ratioP1;P1;durP2;ratioP2;P2;SDS_P1;SDS_P2;PMS_P1;PMS_P2;Temp;Humidity;BMP_temperature;BMP_pressure;BME280_temperature;BME280_humidity;BME280_pressure;Samples;Min_cycle;Max_cycle;Signal;HPM_P1;HPM_P2
2023/09/20 00:00:13;;;;;;;8.60;2.78;;;;;;;17.53;81.72;100805.94;5116557;28;20031;-61
2023/09/20 00:02:42;;;;;;;8.55;3.03;;;;;;;17.52;81.94;100812.19;5116969;28;20070;-60
2023/09/20 00:05:15;;;;;;;11.77;3.40;;;;;;;17.52;81.97;100811.31;5116788;28;20089;-60
2023/09/20 00:07:43;;;;;;;9.10;2.90;;;;;;;17.50;82.06;100807.78;5116786;28;20040;-62
2023/09/20 00:10:12;;;;;;;6.97;3.05;;;;;;;17.50;81.49;100811.31;5116402;28;20489;-61
2023/09/20 00:12:39;;;;;;;11.32;3.17;;;;;;;17.46;82.36;100811.41;5115278;28;20103;-60
2023/09/20 00:15:07;;;;;;;8.35;2.85;;;;;;;17.43;82.25;100800.78;5115170;28;20028;-61
2023/09/20 00:17:34;;;;;;;8.55;2.95;;;;;;;17.41;82.15;100802.59;5116299;27;20389;-62
2023/09/20 00:20:02;;;;;;;11.70;2.95;;;;;;;17.42;82.40;100796.34;5116080;28;20500;-60
2023/09/20 00:22:28;;;;;;;12.38;2.88;;;;;;;17.36;82.56;100800.03;5115242;28;20032;-62
2023/09/20 00:24:55;;;;;;;9.05;3.20;;;;;;;17.33;82.87;100796.53;5116185;28;20473;-61
2023/09/20 00:27:20;;;;;;;8.77;3.17;;;;;;;17.33;82.95;100800.06;5116199;28;20120;-61
2023/09/20 00:29:46;;;;;;;8.52;3.17;;;;;;;17.29;82.99;100798.34;5116381;28;20127;-60
2023/09/20 00:32:11;;;;;;;8.68;2.90;;;;;;;17.23;83.48;100799.34;5116121;28;20146;-61
2023/09/20 00:34:37;;;;;;;8.25;3.05;;;;;;;17.23;83.69;100803.81;5116318;28;20043;-61
2023/09/20 00:37:02;;;;;;;11.48;3.05;;;;;;;17.18;84.28;100795.88;5115935;28;20483;-61
2023/09/20 00:39:27;;;;;;;9.13;3.10;;;;;;;17.15;84.03;100798.59;5115515;28;20131;-61
2023/09/20 00:41:53;;;;;;;8.75;3.05;;;;;;;17.14;84.45;100798.63;5115906;28;20028;-62
2023/09/20 00:44:18;;;;;;;12.98;3.20;;;;;;;17.13;84.34;100783.50;5097586;28;20114;-61
2023/09/20 00:46:46;;;;;;;9.73;3.08;;;;;;;17.13;84.52;100795.09;5115838;28;20020;-61
2023/09/20 00:49:12;;;;;;;9.02;3.00;;;;;;;17.13;84.49;100784.41;5115888;28;20397;-61
2023/09/20 00:51:39;;;;;;;8.27;3.00;;;;;;;17.09;84.88;100784.50;5115779;28;20023;-61
2023/09/20 00:54:04;;;;;;;8.25;3.03;;;;;;;17.08;84.86;100785.38;5115609;28;20034;-60
2023/09/20 00:56:31;;;;;;;8.60;3.08;;;;;;;17.06;85.21;100792.53;5114296;28;20023;-60
2023/09/20 00:58:57;;;;;;;9.88;3.05;;;;;;;17.06;85.35;100790.75;5115453;28;20019;-62
2023/09/20 01:01:26;;;;;;;9.80;2.97;;;;;;;17.06;85.26;100790.75;5115507;28;20070;-61
2023/09/20 01:03:52;;;;;;;9.98;2.90;;;;;;;17.05;85.32;100788.13;5115313;28;20446;-61
2023/09/20 01:06:19;;;;;;;10.18;3.53;;;;;;;17.01;85.89;100785.50;5115289;28;20045;-62
2023/09/20 01:08:46;;;;;;;9.10;3.00;;;;;;;17.04;85.72;100784.53;5115573;28;20118;-61
2023/09/20 01:11:13;;;;;;;9.85;3.17;;;;;;;17.03;85.74;100782.78;5115421;28;20036;-61
2023/09/20 01:13:40;;;;;;;7.68;2.88;;;;;;;17.05;85.95;100793.47;5115215;28;20039;-61
2023/09/20 01:16:09;;;;;;;8.85;3.10;;;;;;;17.03;85.90;100789.00;5115501;28;20363;-61
2023/09/20 01:18:34;;;;;;;8.18;2.80;;;;;;;16.98;86.09;100787.31;5114989;28;20349;-61
2023/09/20 01:21:00;;;;;;;9.48;3.30;;;;;;;16.95;86.38;100785.56;5114893;28;20019;-60
2023/09/20 01:23:27;;;;;;;6.53;2.70;;;;;;;16.91;86.84;100783.88;5114976;28;20055;-61
2023/09/20 01:25:55;;;;;;;7.15;3.10;;;;;;;16.91;86.74;100791.00;5115067;28;20032;-61
2023/09/20 01:28:24;;;;;;;7.60;2.92;;;;;;;16.88;87.11;100788.41;5115061;28;20026;-60
2023/09/20 01:30:50;;;;;;;6.68;2.80;;;;;;;16.85;87.25;100781.31;5114926;28;20477;-60
2023/09/20 01:33:16;;;;;;;12.20;2.92;;;;;;;16.86;87.36;100787.53;5114027;28;20061;-61
2023/09/20 01:35:45;;;;;;;7.28;2.90;;;;;;;16.84;87.42;100776.88;5115000;28;20072;-60
2023/09/20 01:38:11;;;;;;;7.97;3.20;;;;;;;16.84;87.44;100771.53;5114617;28;20405;-61
2023/09/20 01:40:39;;;;;;;9.13;2.80;;;;;;;16.82;87.28;100762.66;5114475;28;20060;-59
2023/09/20 01:43:08;;;;;;;8.52;2.90;;;;;;;16.83;87.35;100763.53;5114689;28;20020;-61
2023/09/20 01:45:35;;;;;;;8.80;3.00;;;;;;;16.82;87.30;100765.34;5114787;28;20028;-60
2023/09/20 01:48:05;;;;;;;11.13;3.00;;;;;;;16.77;87.91;100757.41;5114536;28;20031;-60
2023/09/20 01:50:30;;;;;;;6.88;3.10;;;;;;;16.78;87.98;100763.63;5114369;28;20036;-61
2023/09/20 01:52:57;;;;;;;8.25;2.80;;;;;;;16.78;87.95;100758.28;5114351;28;20030;-60
2023/09/20 01:55:24;;;;;;;10.50;2.80;;;;;;;16.73;88.51;100757.47;5114631;28;20100;-61
2023/09/20 01:57:52;;;;;;;7.80;3.35;;;;;;;16.72;88.47;100745.94;5114510;28;20031;-61
2023/09/20 02:00:22;;;;;;;5.85;2.97;;;;;;;16.75;88.46;100747.69;5113092;28;20046;-60
2023/09/20 02:02:51;;;;;;;10.50;3.38;;;;;;;16.78;88.32;100752.94;5114640;28;20077;-60
2023/09/20 02:05:17;;;;;;;7.03;2.72;;;;;;;16.80;88.36;100742.25;5114148;28;20456;-61
2023/09/20 02:07:47;;;;;;;10.77;2.95;;;;;;;16.79;88.83;100733.38;5113823;28;20103;-61
2023/09/20 02:10:16;;;;;;;7.43;3.15;;;;;;;16.80;88.37;100723.59;5114409;27;20031;-60
2023/09/20 02:12:51;;;;;;;10.15;2.80;;;;;;;16.84;88.53;100734.19;5114381;28;20031;-61
2023/09/20 02:15:20;;;;;;;10.32;3.20;;;;;;;16.84;88.78;100730.63;5114201;28;20027;-61
2023/09/20 02:17:47;;;;;;;8.23;2.80;;;;;;;16.88;88.73;100730.56;5114119;28;20032;-60
2023/09/20 02:20:19;;;;;;;9.05;3.10;;;;;;;16.90;88.89;100733.19;5113783;28;20031;-62
2023/09/20 02:22:48;;;;;;;8.13;3.40;;;;;;;16.93;88.85;100720.69;5113721;27;20031;-61
2023/09/20 02:25:20;;;;;;;8.23;2.75;;;;;;;17.01;88.58;100723.22;5112711;28;20428;-61
2023/09/20 02:27:46;;;;;;;8.18;2.90;;;;;;;17.02;88.57;100720.50;5113894;28;20114;-60
2023/09/20 02:30:15;;;;;;;7.93;3.28;;;;;;;17.07;88.22;100709.75;5113765;28;20030;-61
2023/09/20 02:32:44;;;;;;;6.90;2.83;;;;;;;17.10;88.33;100720.38;5113722;28;20078;-60
2023/09/20 02:35:09;;;;;;;12.48;3.42;;;;;;;17.11;88.34;100713.25;5113717;28;20059;-61
2023/09/20 02:37:35;;;;;;;8.50;3.22;;;;;;;17.17;87.63;100724.72;5113764;28;20047;-61
2023/09/20 02:40:07;;;;;;;7.82;2.90;;;;;;;17.20;87.51;100713.06;5113350;28;20148;-61
2023/09/20 02:42:48;;;;;;;7.95;3.15;;;;;;;17.20;87.59;100713.06;5113686;28;20122;-60
2023/09/20 02:45:19;;;;;;;8.05;3.00;;;;;;;17.21;87.68;100709.47;5113670;28;20036;-61
2023/09/20 02:47:48;;;;;;;8.57;3.17;;;;;;;17.20;87.55;100716.63;5113671;28;20036;-60
2023/09/20 02:50:19;;;;;;;9.38;3.10;;;;;;;17.20;87.56;100699.72;5113481;28;20516;-61
2023/09/20 02:52:47;;;;;;;7.97;3.10;;;;;;;17.18;87.73;100694.41;5113714;28;20050;-61
2023/09/20 02:55:13;;;;;;;8.18;3.10;;;;;;;17.20;87.38;100697.94;5113542;28;20020;-60
2023/09/20 02:57:40;;;;;;;9.65;3.40;;;;;;;17.20;87.51;100697.06;5113405;28;20382;-61
2023/09/20 03:00:16;;;;;;;7.63;3.10;;;;;;;17.17;87.90;100698.00;5113357;28;20031;-60
2023/09/20 03:02:46;;;;;;;7.00;3.10;;;;;;;17.18;87.67;100689.06;5113518;28;20031;-61
2023/09/20 03:05:25;;;;;;;7.80;2.92;;;;;;;17.18;87.99;100696.22;5113278;28;20028;-61
2023/09/20 03:07:53;;;;;;;9.20;2.97;;;;;;;17.17;87.69;100694.44;5113451;28;20039;-61
2023/09/20 03:10:22;;;;;;;10.75;3.22;;;;;;;17.14;88.33;100689.16;5113604;28;20107;-60
2023/09/20 03:12:51;;;;;;;7.85;3.10;;;;;;;17.13;88.18;100685.63;5113353;28;20027;-61
2023/09/20 03:15:21;;;;;;;9.10;3.10;;;;;;;17.10;88.50;100692.81;5113636;28;20122;-60
2023/09/20 03:17:49;;;;;;;9.18;3.20;;;;;;;17.09;88.28;100678.56;5113743;28;20035;-61
2023/09/20 03:20:23;;;;;;;8.75;3.00;;;;;;;17.06;88.64;100681.28;5115919;28;20031;-61
2023/09/20 03:22:57;;;;;;;8.80;3.47;;;;;;;17.02;89.06;100677.78;5116061;28;20043;-60
2023/09/20 03:25:23;;;;;;;6.75;3.00;;;;;;;17.01;88.98;100675.16;5117386;28;20034;-61
2023/09/20 03:27:50;;;;;;;7.97;3.10;;;;;;;17.00;89.25;100662.69;5117272;28;20032;-62
2023/09/20 03:30:16;;;;;;;10.23;2.85;;;;;;;16.99;88.80;100660.94;5117351;28;20024;-60
2023/09/20 03:32:44;;;;;;;9.48;3.00;;;;;;;16.95;89.30;100670.78;5117321;28;20116;-60
2023/09/20 03:35:12;;;;;;;10.15;3.42;;;;;;;16.91;89.52;100660.22;5117404;28;20026;-61
2023/09/20 03:37:41;;;;;;;7.82;3.05;;;;;;;16.87;89.88;100667.38;5117236;28;20045;-61
2023/09/20 03:40:16;;;;;;;12.77;3.47;;;;;;;16.85;89.90;100674.56;5116884;28;20054;-62
2023/09/20 03:42:42;;;;;;;9.52;3.50;;;;;;;16.82;90.15;100666.59;5117476;28;20034;-61
2023/09/20 03:45:11;;;;;;;15.65;3.42;;;;;;;16.80;90.39;100679.09;5117030;28;20039;-61
2023/09/20 03:47:45;;;;;;;9.48;3.15;;;;;;;16.72;90.89;100676.56;5117147;28;20023;-61
2023/09/20 03:50:11;;;;;;;8.43;2.92;;;;;;;16.66;90.99;100676.63;5117164;28;20442;-60
2023/09/20 03:52:39;;;;;;;7.22;3.05;;;;;;;16.61;91.24;100672.25;5116959;28;20023;-61
2023/09/20 03:55:08;;;;;;;6.90;2.80;;;;;;;16.55;91.65;100681.25;5116836;28;20538;-61
2023/09/20 03:57:35;;;;;;;9.40;2.97;;;;;;;16.50;92.10;100677.78;5116689;28;20026;-60
2023/09/20 04:00:06;;;;;;;9.43;3.28;;;;;;;16.48;92.11;100676.91;5116843;28;20082;-61
2023/09/20 04:02:32;;;;;;;9.25;3.17;;;;;;;16.46;92.24;100676.09;5116996;28;20036;-62
2023/09/20 04:05:00;;;;;;;8.55;3.13;;;;;;;16.39;92.72;100671.75;5116873;28;20027;-61
2023/09/20 04:07:28;;;;;;;10.30;3.22;;;;;;;16.33;92.95;100678.06;5116570;28;20465;-60
2023/09/20 04:09:54;;;;;;;5.82;2.88;;;;;;;16.25;93.63;100677.28;5116444;28;20077;-61
2023/09/20 04:12:22;;;;;;;10.13;3.38;;;;;;;16.23;93.78;100681.75;5116490;28;20020;-60
2023/09/20 04:14:48;;;;;;;8.32;3.08;;;;;;;16.20;93.80;100669.38;5115148;28;20031;-61
2023/09/20 04:17:13;;;;;;;8.32;3.00;;;;;;;16.21;93.71;100673.78;5116623;28;20027;-59
2023/09/20 04:19:39;;;;;;;6.70;2.83;;;;;;;16.23;93.87;100671.09;5116234;28;20030;-60
2023/09/20 04:22:08;;;;;;;7.50;3.00;;;;;;;16.15;94.43;100665.91;5116067;28;20039;-60
2023/09/20 04:24:34;;;;;;;10.60;3.15;;;;;;;16.11;94.83;100665.97;5116342;28;20509;-61
2023/09/20 04:27:02;;;;;;;8.32;3.30;;;;;;;16.11;94.53;100657.97;5116518;28;20047;-61
2023/09/20 04:29:28;;;;;;;7.70;3.10;;;;;;;16.09;95.04;100654.44;5116018;28;20081;-61
2023/09/20 04:31:55;;;;;;;13.63;3.20;;;;;;;16.09;95.17;100647.31;5116152;28;20032;-61
2023/09/20 04:34:21;;;;;;;9.93;3.17;;;;;;;16.07;95.16;100653.59;5116209;28;20055;-61
2023/09/20 04:36:46;;;;;;;9.48;3.10;;;;;;;16.03;95.60;100656.28;5116315;28;20427;-60
2023/09/20 04:39:12;;;;;;;9.55;3.40;;;;;;;16.01;95.77;100642.09;5115894;28;20471;-60
2023/09/20 04:41:38;;;;;;;9.30;3.20;;;;;;;15.99;96.06;100638.56;5116191;28;20032;-60
2023/09/20 04:44:07;;;;;;;8.25;3.20;;;;;;;16.00;96.09;100642.13;5116178;27;20039;-62
2023/09/20 04:46:36;;;;;;;7.63;3.17;;;;;;;15.97;96.17;100639.50;5116008;28;20024;-62
2023/09/20 04:49:05;;;;;;;10.63;3.28;;;;;;;15.94;96.41;100648.44;5115761;28;20106;-60
2023/09/20 04:51:31;;;;;;;13.45;3.33;;;;;;;15.94;96.44;100647.56;5115552;28;20530;-60
2023/09/20 04:53:57;;;;;;;11.35;3.47;;;;;;;15.91;96.93;100651.13;5115966;28;20019;-61
2023/09/20 04:56:23;;;;;;;9.32;3.17;;;;;;;15.89;97.19;100639.63;5115642;28;20497;-60
2023/09/20 04:58:49;;;;;;;5.93;3.30;;;;;;;15.86;97.30;100638.78;5115613;27;20107;-61
2023/09/20 05:01:15;;;;;;;7.95;3.10;;;;;;;15.87;96.89;100644.09;5115826;28;20031;-61
2023/09/20 05:03:40;;;;;;;9.35;3.38;;;;;;;15.86;97.58;100641.44;5115424;28;20050;-61
2023/09/20 05:06:07;;;;;;;7.70;3.22;;;;;;;15.85;97.38;100640.56;5115646;28;20080;-60
2023/09/20 05:08:32;;;;;;;8.43;3.13;;;;;;;15.85;97.73;100637.03;5115344;28;20365;-60
2023/09/20 05:10:58;;;;;;;12.07;3.55;;;;;;;15.86;97.54;100625.47;5115313;28;20035;-60
2023/09/20 05:13:23;;;;;;;8.48;2.80;;;;;;;15.87;97.60;100636.09;5114029;28;20042;-60
2023/09/20 05:15:50;;;;;;;8.48;3.40;;;;;;;15.87;97.54;100630.75;5115501;28;20028;-60
2023/09/20 05:18:16;;;;;;;8.07;3.03;;;;;;;15.86;97.75;100647.66;5115474;28;20132;-60
2023/09/20 05:20:44;;;;;;;6.68;3.22;;;;;;;15.86;98.00;100639.66;5114935;28;20036;-60
2023/09/20 05:23:10;;;;;;;8.70;3.03;;;;;;;15.85;98.14;100635.25;5114525;28;20027;-60
2023/09/20 05:25:37;;;;;;;10.18;3.25;;;;;;;15.89;98.10;100636.09;5114517;28;20492;-61
2023/09/20 05:28:03;;;;;;;11.48;3.80;;;;;;;15.87;98.19;100645.88;5114501;28;20035;-60
2023/09/20 05:30:30;;;;;;;7.88;2.95;;;;;;;15.87;98.24;100638.75;5114354;28;20062;-60
2023/09/20 05:32:55;;;;;;;5.43;3.10;;;;;;;15.87;98.21;100632.53;5114735;28;20028;-61
2023/09/20 05:35:21;;;;;;;7.85;3.35;;;;;;;15.88;98.62;100636.97;5114493;28;20028;-61
2023/09/20 05:37:46;;;;;;;8.82;3.15;;;;;;;15.89;98.60;100625.44;5114618;28;20024;-60
2023/09/20 05:40:17;;;;;;;9.73;3.05;;;;;;;15.88;98.69;100626.31;5114005;28;20101;-60
2023/09/20 05:42:46;;;;;;;6.68;2.80;;;;;;;15.89;98.69;100626.31;5113597;28;20073;-60
2023/09/20 05:45:13;;;;;;;9.40;3.00;;;;;;;15.90;98.54;100627.19;5114071;28;20107;-60
2023/09/20 05:47:43;;;;;;;8.18;2.90;;;;;;;15.92;98.67;100631.56;5114228;28;20027;-60
2023/09/20 05:50:13;;;;;;;7.05;3.40;;;;;;;15.96;98.50;100630.63;5113848;28;20385;-60
2023/09/20 05:52:41;;;;;;;8.27;3.10;;;;;;;15.98;98.57;100619.97;5114191;28;20035;-60
2023/09/20 05:55:14;;;;;;;6.80;3.10;;;;;;;16.03;98.53;100616.31;5113912;28;20062;-60
2023/09/20 05:57:45;;;;;;;6.18;3.10;;;;;;;16.11;98.29;100624.19;5114034;28;20504;-60
2023/09/20 06:00:22;;;;;;;8.17;2.90;;;;;;;16.21;97.66;100617.81;5114156;28;20067;-61
2023/09/20 06:02:49;;;;;;;7.22;3.00;;;;;;;16.26;97.45;100636.38;5113981;28;20019;-60
2023/09/20 06:05:15;;;;;;;10.02;3.03;;;;;;;16.34;97.35;100623.81;5113717;28;20035;-60
2023/09/20 06:07:41;;;;;;;7.18;3.05;;;;;;;16.43;96.82;100634.31;5114054;28;20097;-60
2023/09/20 06:10:13;;;;;;;6.82;3.20;;;;;;;16.55;96.36;100627.91;5113972;28;20031;-61
2023/09/20 06:12:38;;;;;;;8.23;3.28;;;;;;;16.70;95.41;100633.00;5113624;28;20044;-61
2023/09/20 06:15:07;;;;;;;10.30;3.03;;;;;;;16.81;94.97;100623.94;5113569;28;20059;-60
2023/09/20 06:17:33;;;;;;;7.55;3.35;;;;;;;16.82;94.64;100618.56;5113430;28;20072;-60
2023/09/20 06:19:59;;;;;;;7.90;3.00;;;;;;;16.83;94.36;100616.75;5113368;28;20028;-60
2023/09/20 06:22:28;;;;;;;10.35;3.10;;;;;;;16.84;94.79;100614.09;5113569;28;20027;-62
2023/09/20 06:24:58;;;;;;;9.75;3.05;;;;;;;16.86;94.35;100620.25;5113959;28;20107;-59
2023/09/20 06:27:23;;;;;;;7.50;3.00;;;;;;;16.94;94.22;100622.78;5113362;28;20109;-61
2023/09/20 06:29:51;;;;;;;6.72;3.10;;;;;;;17.02;94.09;100619.06;5113275;28;20028;-61
2023/09/20 06:32:17;;;;;;;10.70;3.17;;;;;;;17.09;93.42;100606.50;5112112;28;20027;-61
2023/09/20 06:34:42;;;;;;;12.55;3.25;;;;;;;17.21;93.13;100616.03;5113249;28;20031;-60
2023/09/20 06:37:10;;;;;;;8.85;3.20;;;;;;;17.33;92.73;100623.78;5113256;28;20024;-62
2023/09/20 06:39:36;;;;;;;7.82;2.85;;;;;;;17.37;91.92;100621.94;5113037;28;20420;-61
2023/09/20 06:42:02;;;;;;;6.75;2.90;;;;;;;17.43;92.15;100625.38;5113310;28;20035;-60
2023/09/20 06:44:27;;;;;;;9.55;2.90;;;;;;;17.43;91.77;100628.06;5113379;28;20031;-61
2023/09/20 06:46:53;;;;;;;12.25;3.58;;;;;;;17.52;92.03;100624.31;5113046;28;20026;-60
2023/09/20 06:49:18;;;;;;;8.80;2.90;;;;;;;17.60;91.21;100613.41;5112818;28;20035;-59
2023/09/20 06:51:44;;;;;;;7.38;2.92;;;;;;;17.63;90.91;100616.03;5112828;28;20476;-61
2023/09/20 06:54:09;;;;;;;6.43;2.80;;;;;;;17.77;90.48;100624.66;5112866;28;20023;-60
2023/09/20 06:56:35;;;;;;;5.03;2.60;;;;;;;17.87;90.30;100617.31;5112942;28;20373;-60
2023/09/20 06:59:03;;;;;;;6.30;2.50;;;;;;;17.98;88.97;100626.84;5112806;28;20085;-60
2023/09/20 07:01:29;;;;;;;8.35;3.08;;;;;;;18.09;88.50;100628.41;5112986;28;20512;-61
2023/09/20 07:03:54;;;;;;;8.90;2.80;;;;;;;18.26;88.26;100635.09;5112912;28;20055;-60
2023/09/20 07:06:19;;;;;;;8.80;2.75;;;;;;;18.44;87.09;100635.56;5112881;28;20070;-61
2023/09/20 07:08:45;;;;;;;6.00;2.88;;;;;;;18.53;87.25;100625.50;5113122;28;20116;-61
2023/09/20 07:11:14;;;;;;;7.28;2.75;;;;;;;18.52;86.32;100629.09;5112948;28;20070;-61
2023/09/20 07:13:40;;;;;;;5.90;2.70;;;;;;;18.51;86.71;100627.34;5112991;28;20048;-61
2023/09/20 07:16:06;;;;;;;8.20;3.10;;;;;;;18.46;85.65;100629.25;5112686;28;20059;-60
2023/09/20 07:18:31;;;;;;;7.40;2.90;;;;;;;18.53;85.60;100627.28;5112875;28;20028;-59
2023/09/20 07:20:57;;;;;;;7.00;2.83;;;;;;;18.46;85.87;100615.88;5112589;28;20056;-60
2023/09/20 07:23:23;;;;;;;7.95;2.70;;;;;;;18.49;86.39;100612.22;5112881;28;20034;-61
2023/09/20 07:25:53;;;;;;;5.22;2.97;;;;;;;18.49;86.93;100612.22;5112918;28;20113;-61
2023/09/20 07:28:18;;;;;;;7.40;2.58;;;;;;;18.51;86.19;100615.78;5112711;28;20031;-60
2023/09/20 07:30:44;;;;;;;6.47;2.80;;;;;;;18.53;85.78;100624.63;5112822;28;20028;-59
2023/09/20 07:33:14;;;;;;;6.47;2.67;;;;;;;18.74;85.93;100613.38;5112988;28;20077;-61
2023/09/20 07:35:49;;;;;;;6.15;2.70;;;;;;;18.87;84.49;100613.06;5112917;28;20028;-60
2023/09/20 07:38:25;;;;;;;5.97;2.80;;;;;;;18.88;83.63;100615.69;5112503;28;20053;-60
2023/09/20 07:40:51;;;;;;;6.03;2.50;;;;;;;18.94;84.03;100623.56;5112381;28;20097;-60
2023/09/20 07:43:20;;;;;;;6.88;2.88;;;;;;;19.01;84.05;100625.16;5112522;28;20500;-60
2023/09/20 07:45:46;;;;;;;12.30;3.10;;;;;;;19.16;83.85;100617.63;5112745;28;20035;-61
2023/09/20 07:48:13;;;;;;;7.30;3.03;;;;;;;19.31;82.98;100622.53;5112656;28;20031;-62
2023/09/20 07:50:40;;;;;;;7.20;2.83;;;;;;;19.38;82.33;100623.22;5112602;28;20102;-61
2023/09/20 07:53:10;;;;;;;6.78;2.90;;;;;;;19.43;82.89;100629.34;5112191;28;20103;-61
2023/09/20 07:55:45;;;;;;;9.35;3.13;;;;;;;19.33;80.91;100628.72;5112453;28;20469;-60
2023/09/20 07:58:11;;;;;;;8.52;3.08;;;;;;;19.45;81.35;100625.69;5112377;28;20399;-60
2023/09/20 08:00:42;;;;;;;6.47;2.83;;;;;;;19.52;81.05;100616.53;5112382;28;20527;-60
2023/09/20 08:03:09;;;;;;;6.55;2.95;;;;;;;19.48;81.05;100614.88;5112831;28;20027;-60
2023/09/20 08:05:35;;;;;;;11.82;3.20;;;;;;;19.64;80.13;100612.66;5113430;28;20319;-60
2023/09/20 08:08:00;;;;;;;6.25;2.72;;;;;;;19.81;79.63;100608.56;5116257;27;20477;-60
2023/09/20 08:10:26;;;;;;;7.68;3.00;;;;;;;19.99;79.81;100608.84;5116082;28;20045;-61
2023/09/20 08:12:53;;;;;;;9.85;3.13;;;;;;;19.94;78.30;100624.22;5116436;28;20034;-61
2023/09/20 08:15:20;;;;;;;6.75;3.05;;;;;;;19.86;77.79;100620.91;5115999;27;20035;-59
2023/09/20 08:20:29;;;;;;;6.28;2.90;;;;;;;20.01;78.96;100624.94;5115723;28;20058;-61
2023/09/20 09:01:20;;;;;;;6.85;3.40;;;;;;;21.19;72.77;100620.91;5115448;28;20084;-60
2023/09/20 09:03:46;;;;;;;7.95;3.25;;;;;;;21.25;72.43;100647.56;5115202;28;20028;-61
2023/09/20 09:06:12;;;;;;;7.40;3.40;;;;;;;21.23;73.01;100638.66;5115088;28;20027;-61
2023/09/20 09:08:38;;;;;;;9.13;3.13;;;;;;;21.30;72.29;100634.84;5115146;28;20019;-61
2023/09/20 09:11:03;;;;;;;9.52;3.50;;;;;;;21.21;71.93;100627.13;5114965;28;20366;-61
2023/09/20 09:13:30;;;;;;;6.15;3.00;;;;;;;21.08;73.78;100621.31;5114842;28;20020;-62
2023/09/20 09:15:56;;;;;;;7.43;3.08;;;;;;;20.94;73.59;100632.56;5114859;28;20389;-60
2023/09/20 09:18:21;;;;;;;7.63;3.17;;;;;;;20.71;73.73;100644.09;5113689;28;20106;-60
2023/09/20 09:20:47;;;;;;;7.78;3.15;;;;;;;20.68;75.20;100622.69;5114716;28;20027;-61
2023/09/20 09:23:28;;;;;;;5.63;2.80;;;;;;;20.71;75.31;100627.09;5114763;28;20035;-62
2023/09/20 09:25:53;;;;;;;5.88;2.97;;;;;;;20.59;74.52;100639.13;5115027;27;20055;-59
2023/09/20 09:28:19;;;;;;;9.15;3.17;;;;;;;20.55;76.03;100620.50;5114567;28;20047;-62
2023/09/20 09:30:50;;;;;;;8.88;3.00;;;;;;;20.45;75.23;100615.41;5113299;28;20031;-62
2023/09/20 09:33:16;;;;;;;7.75;3.17;;;;;;;20.48;76.18;100625.22;5114746;28;20027;-61
2023/09/20 09:35:45;;;;;;;8.35;3.30;;;;;;;20.48;75.55;100618.03;5114328;28;20028;-62
2023/09/20 09:38:12;;;;;;;5.57;3.08;;;;;;;20.64;75.48;100613.03;5114590;28;20020;-61
2023/09/20 09:40:51;;;;;;;6.13;2.97;;;;;;;20.68;76.13;100617.31;5113686;28;20138;-62
2023/09/20 09:43:17;;;;;;;9.65;3.15;;;;;;;20.78;76.04;100609.84;5114644;28;20023;-61
2023/09/20 09:45:46;;;;;;;6.20;2.90;;;;;;;20.86;74.38;100599.72;5114204;28;20127;-61
2023/09/20 09:48:17;;;;;;;7.82;3.00;;;;;;;20.97;74.16;100608.25;5114324;28;20070;-61
2023/09/20 09:50:46;;;;;;;8.70;2.60;;;;;;;21.09;74.69;100614.13;5114209;28;20051;-63
2023/09/20 09:53:15;;;;;;;8.43;2.90;;;;;;;21.17;74.13;100607.53;5113933;28;20460;-61
2023/09/20 09:55:41;;;;;;;8.40;3.10;;;;;;;21.21;72.79;100600.25;5113727;28;20468;-62
2023/09/20 09:58:09;;;;;;;6.68;2.75;;;;;;;21.13;73.33;100603.22;5113918;28;20023;-62
2023/09/20 10:00:38;;;;;;;7.88;3.00;;;;;;;21.08;73.32;100612.38;5113705;28;20027;-61
2023/09/20 10:03:32;;;;;;;7.95;2.60;;;;;;;21.14;73.50;100587.97;5114103;28;20023;-60
2023/09/20 10:06:10;;;;;;;6.50;2.90;;;;;;;21.18;73.18;100609.28;5111036;28;20051;-60
2023/09/20 10:08:40;;;;;;;7.63;2.70;;;;;;;21.30;73.09;100593.66;5113787;28;20028;-62
2023/09/20 10:11:08;;;;;;;6.25;2.60;;;;;;;21.42;72.31;100591.41;5113759;28;20439;-62
2023/09/20 10:13:35;;;;;;;5.10;2.63;;;;;;;21.49;72.41;100584.84;5113980;28;20437;-62
2023/09/20 10:16:04;;;;;;;7.57;2.75;;;;;;;21.69;71.55;100586.75;5113754;28;20059;-61
2023/09/20 10:18:54;;;;;;;7.13;2.60;;;;;;;21.80;70.84;100589.03;5113852;28;20043;-61
2023/09/20 10:21:24;;;;;;;9.65;2.70;;;;;;;21.88;70.37;100584.19;5113457;28;20063;-62
2023/09/20 10:23:55;;;;;;;6.22;2.78;;;;;;;22.02;70.41;100580.97;5113762;28;20028;-60
2023/09/20 10:26:21;;;;;;;9.40;2.65;;;;;;;22.34;69.58;100562.63;5113456;28;20027;-60
2023/09/20 10:28:47;;;;;;;5.35;2.50;;;;;;;22.62;68.93;100570.41;5112613;28;20034;-60
2023/09/20 10:31:18;;;;;;;7.32;2.88;;;;;;;22.73;67.74;100568.13;5113072;28;20070;-61
2023/09/20 10:33:57;;;;;;;8.27;2.25;;;;;;;22.89;66.66;100582.66;5113266;28;20023;-62
2023/09/20 10:36:23;;;;;;;4.93;2.20;;;;;;;22.66;65.65;100577.44;5113400;28;20503;-61
2023/09/20 10:39:09;;;;;;;5.25;2.15;;;;;;;22.74;66.52;100575.28;5113048;28;20020;-61
2023/09/20 10:41:40;;;;;;;4.93;2.35;;;;;;;22.64;66.01;100566.69;5100373;28;20048;-62
2023/09/20 10:44:05;;;;;;;5.25;2.30;;;;;;;22.46;65.53;100560.28;5099887;28;20028;-62
2023/09/20 10:46:35;;;;;;;6.13;2.25;;;;;;;22.34;66.52;100558.13;5101355;28;20089;-63
2023/09/20 10:49:00;;;;;;;4.38;2.30;;;;;;;22.39;67.31;100560.63;5103275;28;20328;-62
2023/09/20 10:51:44;;;;;;;4.70;2.25;;;;;;;22.55;67.47;100575.19;5100397;28;20526;-63
2023/09/20 10:54:20;;;;;;;3.33;2.00;;;;;;;22.46;66.38;100554.91;5099159;28;20073;-62
2023/09/20 10:56:52;;;;;;;4.05;2.40;;;;;;;22.48;67.05;100544.97;5099971;28;20424;-61
2023/09/20 10:59:22;;;;;;;7.55;2.38;;;;;;;22.50;66.92;100550.28;5098287;28;20096;-63
2023/09/20 11:02:01;;;;;;;5.10;2.15;;;;;;;22.47;65.94;100551.28;5105004;28;20022;-62
2023/09/20 11:04:28;;;;;;;6.38;2.20;;;;;;;22.48;65.87;100563.81;5101668;28;20485;-61
2023/09/20 11:06:58;;;;;;;4.28;2.10;;;;;;;22.39;65.87;100549.84;5102874;28;20024;-60
2023/09/20 11:09:24;;;;;;;4.15;2.20;;;;;;;22.38;65.88;100551.66;5092447;28;20066;-59
2023/09/20 11:11:53;;;;;;;7.25;2.20;;;;;;;22.34;67.42;100531.19;5092689;28;20115;-62
2023/09/20 11:14:19;;;;;;;8.73;2.40;;;;;;;22.36;66.75;100539.22;5092843;28;20020;-61
2023/09/20 11:16:44;;;;;;;6.30;2.00;;;;;;;22.28;67.35;100536.00;5074340;28;20024;-60
2023/09/20 11:19:13;;;;;;;4.40;2.00;;;;;;;22.18;66.75;100540.88;5092458;28;20439;-60
2023/09/20 11:21:41;;;;;;;5.43;2.10;;;;;;;22.04;67.70;100533.34;5092040;28;20385;-60
2023/09/20 11:24:14;;;;;;;5.72;2.20;;;;;;;22.03;66.51;100545.06;5092409;28;20474;-60
2023/09/20 11:26:40;;;;;;;5.30;2.10;;;;;;;22.08;67.47;100526.03;5092342;28;20055;-61
2023/09/20 11:29:09;;;;;;;5.25;2.10;;;;;;;22.20;67.09;100531.78;5092669;28;20060;-61
2023/09/20 11:31:35;;;;;;;6.68;2.20;;;;;;;22.29;67.27;100538.59;5074285;28;20039;-62
2023/09/20 11:34:03;;;;;;;5.28;2.20;;;;;;;22.37;66.62;100535.59;5097785;28;20111;-61
2023/09/20 11:36:53;;;;;;;6.45;2.10;;;;;;;22.33;65.98;100550.13;5112577;28;20118;-61
2023/09/20 11:39:26;;;;;;;4.78;2.13;;;;;;;22.29;66.65;100541.28;5100297;28;20445;-60
2023/09/20 11:41:58;;;;;;;4.70;2.20;;;;;;;22.36;66.93;100536.53;5104466;28;20036;-60
2023/09/20 11:44:24;;;;;;;7.30;2.23;;;;;;;22.32;66.43;100537.63;5102855;28;20027;-60
2023/09/20 11:46:54;;;;;;;6.72;2.20;;;;;;;22.33;66.70;100536.66;5105460;28;20099;-61
2023/09/20 11:49:20;;;;;;;5.55;2.30;;;;;;;22.29;66.53;100543.13;5113559;28;20110;-61
2023/09/20 11:51:45;;;;;;;7.20;2.40;;;;;;;22.18;67.07;100528.31;5098252;28;20467;-61
2023/09/20 11:54:11;;;;;;;4.60;2.25;;;;;;;22.19;66.99;100530.06;5116366;28;20133;-61
2023/09/20 11:56:37;;;;;;;4.43;2.20;;;;;;;22.25;67.39;100540.56;5116539;28;20031;-59
2023/09/20 11:59:09;;;;;;;7.85;2.20;;;;;;;22.26;65.98;100541.41;5116161;28;20027;-63
2023/09/20 12:01:40;;;;;;;3.30;2.17;;;;;;;22.25;66.18;100543.25;5116472;28;20034;-61
2023/09/20 12:04:05;;;;;;;6.60;2.35;;;;;;;22.16;65.42;100546.31;5116149;28;20070;-62
2023/09/20 12:06:31;;;;;;;6.43;2.20;;;;;;;22.16;65.15;100530.19;5098025;28;20055;-60
2023/09/20 12:09:00;;;;;;;6.43;2.35;;;;;;;22.21;65.42;100530.84;5097846;28;20027;-61